createdAt,value
2017-09-23T00:00:59.121Z,15.70
2017-09-23T00:03:28.048Z,15.90
2017-09-23T00:05:56.686Z,16.10
2017-09-23T00:08:26.046Z,16.20
2017-09-23T00:10:55.278Z,16.30
2017-09-23T00:13:24.354Z,16.30
2017-09-23T00:15:52.983Z,16.50
2017-09-23T00:18:22.826Z,16.70
2017-09-23T00:20:53.058Z,16.70
2017-09-23T00:23:21.924Z,16.70
2017-09-23T00:25:50.626Z,16.50
2017-09-23T00:28:19.018Z,16.20
2017-09-23T00:30:47.572Z,16.20
2017-09-23T00:33:16.762Z,16.20
2017-09-23T00:35:45.668Z,16.20
2017-09-23T00:38:14.437Z,16.00
2017-09-23T00:40:43.382Z,15.90
2017-09-23T00:43:13.061Z,15.70
2017-09-23T00:45:41.737Z,15.50
2017-09-23T00:48:10.513Z,15.30
2017-09-23T00:50:39.751Z,15.20
2017-09-23T00:53:09.095Z,15.20
2017-09-23T00:55:37.776Z,15.10
2017-09-23T00:58:06.717Z,14.90
2017-09-23T01:03:08.636Z,14.80
2017-09-23T01:05:37.506Z,14.70
2017-09-23T01:08:06.121Z,14.60
2017-09-23T01:10:34.974Z,14.50
2017-09-23T01:13:04.195Z,14.50
2017-09-23T01:15:32.750Z,14.50
2017-09-23T01:18:01.665Z,14.40
2017-09-23T01:20:30.556Z,14.30
2017-09-23T01:22:59.827Z,14.30
2017-09-23T01:25:29.003Z,14.20
2017-09-23T01:27:58.496Z,14.20
2017-09-23T01:30:27.908Z,14.30
2017-09-23T01:32:56.964Z,14.30
2017-09-23T01:35:26.699Z,14.30
2017-09-23T01:37:55.736Z,14.30
2017-09-23T01:40:24.945Z,14.40
2017-09-23T01:42:53.583Z,14.60
2017-09-23T01:45:22.566Z,14.70
2017-09-23T01:47:51.827Z,14.80
2017-09-23T01:50:20.940Z,14.90
2017-09-23T01:52:49.488Z,14.90
2017-09-23T01:55:18.140Z,14.80
2017-09-23T01:57:47.414Z,14.60
2017-09-23T02:00:16.495Z,14.50
2017-09-23T02:02:45.279Z,14.50
2017-09-23T02:05:14.200Z,14.50
2017-09-23T02:07:42.933Z,14.50
2017-09-23T02:10:12.430Z,14.50
2017-09-23T02:12:41.528Z,14.50
2017-09-23T02:15:10.013Z,14.40
2017-09-23T02:17:38.903Z,14.40
2017-09-23T02:20:07.649Z,14.40
2017-09-23T02:22:36.764Z,14.30
2017-09-23T02:25:05.407Z,14.30
2017-09-23T02:27:34.399Z,14.10
2017-09-23T02:30:03.431Z,14.20
2017-09-23T02:32:32.500Z,14.10
2017-09-23T02:35:01.378Z,14.00
2017-09-23T02:37:30.539Z,14.10
2017-09-23T02:39:59.768Z,14.30
2017-09-23T02:42:28.618Z,14.30
2017-09-23T02:44:57.174Z,14.20
2017-09-23T02:47:25.975Z,14.30
2017-09-23T02:49:54.887Z,14.40
2017-09-23T02:52:24.050Z,14.30
2017-09-23T02:54:52.976Z,14.20
2017-09-23T02:57:22.045Z,14.40
2017-09-23T02:59:51.166Z,14.50
2017-09-23T03:02:19.933Z,14.50
2017-09-23T03:04:49.402Z,14.40
2017-09-23T03:07:18.326Z,14.40
2017-09-23T03:09:47.783Z,14.20
2017-09-23T03:12:16.502Z,14.20
2017-09-23T03:14:46.369Z,14.20
2017-09-23T03:17:15.406Z,14.20
2017-09-23T03:19:44.621Z,14.20
2017-09-23T03:22:13.801Z,14.20
2017-09-23T03:24:43.375Z,14.20
2017-09-23T03:27:12.750Z,14.00
2017-09-23T03:29:41.513Z,14.00
2017-09-23T03:32:10.600Z,14.00
2017-09-23T03:34:39.719Z,14.00
2017-09-23T03:37:08.477Z,14.00
2017-09-23T03:39:37.650Z,14.20
2017-09-23T03:42:06.708Z,14.30
2017-09-23T03:44:35.813Z,14.30
2017-09-23T03:47:04.723Z,14.30
2017-09-23T03:49:33.944Z,14.30
2017-09-23T03:52:03.183Z,14.30
2017-09-23T03:54:32.206Z,14.30
2017-09-23T03:57:01.194Z,14.30
2017-09-23T03:59:30.328Z,14.50
2017-09-23T04:01:59.166Z,14.50
2017-09-23T04:04:28.344Z,14.40
2017-09-23T04:06:57.449Z,14.40
2017-09-23T04:09:26.963Z,14.60
2017-09-23T04:11:55.932Z,14.50
2017-09-23T04:14:25.037Z,14.50
2017-09-23T04:16:54.886Z,14.60
2017-09-23T04:19:23.627Z,14.70
2017-09-23T04:21:52.776Z,14.80
2017-09-23T04:24:21.828Z,14.90
2017-09-23T04:26:50.529Z,15.20
2017-09-23T04:29:19.122Z,15.20
2017-09-23T04:31:47.689Z,15.20
2017-09-23T04:34:16.406Z,15.20
2017-09-23T04:36:45.452Z,15.30
2017-09-23T04:39:14.091Z,15.40
2017-09-23T04:41:43.143Z,15.40
2017-09-23T04:44:12.153Z,15.30
2017-09-23T04:46:40.990Z,15.20
2017-09-23T04:49:09.545Z,15.10
2017-09-23T04:51:38.236Z,15.10
2017-09-23T04:54:06.843Z,15.00
2017-09-23T04:56:35.553Z,15.00
2017-09-23T04:59:04.760Z,15.00
2017-09-23T05:01:33.453Z,15.20
2017-09-23T05:04:02.670Z,15.30
2017-09-23T05:06:31.360Z,15.30
2017-09-23T05:08:59.987Z,15.20
2017-09-23T05:11:29.025Z,15.10
2017-09-23T05:13:57.873Z,15.10
2017-09-23T05:16:26.778Z,15.20
2017-09-23T05:18:55.796Z,14.90
2017-09-23T05:21:24.876Z,14.80
2017-09-23T05:23:54.164Z,14.60
2017-09-23T05:26:23.141Z,14.60
2017-09-23T05:28:52.432Z,14.60
2017-09-23T05:31:21.186Z,14.50
2017-09-23T05:33:49.833Z,14.40
2017-09-23T05:36:18.835Z,14.30
2017-09-23T05:38:48.525Z,14.30
2017-09-23T05:41:17.301Z,14.30
2017-09-23T05:43:46.108Z,14.30
2017-09-23T05:46:16.056Z,14.40
2017-09-23T05:48:45.581Z,14.50
2017-09-23T05:51:15.004Z,14.60
2017-09-23T05:53:43.909Z,14.70
2017-09-23T05:56:12.596Z,14.70
2017-09-23T05:58:41.911Z,14.70
2017-09-23T06:01:10.652Z,14.80
2017-09-23T06:03:39.919Z,14.70
2017-09-23T06:06:09.610Z,14.70
2017-09-23T06:08:38.419Z,14.70
2017-09-23T06:11:07.225Z,14.70
2017-09-23T06:13:36.008Z,14.80
2017-09-23T06:16:05.060Z,14.80
2017-09-23T06:18:35.280Z,15.40
2017-09-23T06:21:04.187Z,15.40
2017-09-23T06:23:33.681Z,16.30
2017-09-23T06:26:02.384Z,16.30
2017-09-23T06:28:31.389Z,16.80
2017-09-23T06:31:00.506Z,17.00
2017-09-23T06:33:30.377Z,17.30
2017-09-23T06:35:59.780Z,17.70
2017-09-23T06:38:30.808Z,17.70
2017-09-23T06:40:59.627Z,17.70
2017-09-23T06:43:28.913Z,17.80
2017-09-23T06:45:57.316Z,17.70
2017-09-23T06:48:25.958Z,17.60
2017-09-23T06:50:54.949Z,17.50
2017-09-23T06:53:24.168Z,17.30
2017-09-23T06:55:54.190Z,17.40
2017-09-23T06:58:24.786Z,17.40
2017-09-23T07:00:54.253Z,17.40
2017-09-23T07:03:23.429Z,17.40
2017-09-23T07:05:52.643Z,17.40
2017-09-23T07:08:22.249Z,17.50
2017-09-23T07:10:51.798Z,17.80
2017-09-23T07:13:20.878Z,17.80
2017-09-23T07:15:50.209Z,18.40
2017-09-23T07:18:19.440Z,19.30
2017-09-23T07:20:48.543Z,20.20
2017-09-23T07:23:17.436Z,21.20
2017-09-23T07:25:46.784Z,22.20
2017-09-23T07:28:15.940Z,22.20
2017-09-23T07:30:45.698Z,22.60
2017-09-23T07:33:15.722Z,22.80
2017-09-23T07:35:44.953Z,22.80
2017-09-23T07:38:14.697Z,22.60
2017-09-23T07:40:43.808Z,22.10
2017-09-23T07:43:13.427Z,21.70
2017-09-23T07:45:42.275Z,21.70
2017-09-23T07:48:11.969Z,22.20
2017-09-23T07:50:41.533Z,22.10
2017-09-23T07:53:11.169Z,22.10
2017-09-23T07:55:40.645Z,22.10
2017-09-23T07:58:11.080Z,21.90
2017-09-23T08:00:40.294Z,21.90
2017-09-23T08:03:10.301Z,22.60
2017-09-23T08:05:39.988Z,22.60
2017-09-23T08:08:10.361Z,22.70
2017-09-23T08:10:40.099Z,22.10
2017-09-23T08:13:10.307Z,21.80
2017-09-23T08:15:40.016Z,21.80
2017-09-23T08:18:10.124Z,21.80
2017-09-23T08:20:39.501Z,21.80
2017-09-23T08:23:08.568Z,22.10
2017-09-23T08:25:37.648Z,22.30
2017-09-23T08:28:06.748Z,22.30
2017-09-23T08:30:35.618Z,22.30
2017-09-23T08:33:04.596Z,22.60
2017-09-23T08:35:34.112Z,22.80
2017-09-23T08:38:02.807Z,22.80
2017-09-23T08:40:31.604Z,22.70
2017-09-23T08:43:00.908Z,22.30
2017-09-23T08:45:30.767Z,22.10
2017-09-23T08:47:59.762Z,22.10
2017-09-23T08:50:28.522Z,21.70
2017-09-23T08:52:57.609Z,21.50
2017-09-23T08:55:26.276Z,21.40
2017-09-23T08:57:54.780Z,21.50
2017-09-23T09:00:23.209Z,21.70
2017-09-23T09:02:52.582Z,22.00
2017-09-23T09:05:21.673Z,22.30
2017-09-23T09:07:50.197Z,22.40
2017-09-23T09:10:19.763Z,22.30
2017-09-23T09:12:48.343Z,22.30
2017-09-23T09:15:17.813Z,22.30
2017-09-23T09:17:47.114Z,22.30
2017-09-23T09:20:16.438Z,22.40
2017-09-23T09:22:45.656Z,22.70
2017-09-23T09:25:14.475Z,23.00
2017-09-23T09:27:43.182Z,23.20
2017-09-23T09:30:12.005Z,23.40
2017-09-23T09:32:41.366Z,23.00
2017-09-23T09:35:10.294Z,22.60
2017-09-23T09:37:39.092Z,22.10
2017-09-23T09:40:07.622Z,21.70
2017-09-23T09:42:37.120Z,21.70
2017-09-23T09:45:06.392Z,21.90
2017-09-23T09:47:35.322Z,22.10
2017-09-23T09:50:04.249Z,22.10
2017-09-23T09:52:32.992Z,22.10
2017-09-23T09:55:01.874Z,22.30
2017-09-23T09:57:30.614Z,22.20
2017-09-23T09:59:59.802Z,22.10
2017-09-23T10:02:28.837Z,22.10
2017-09-23T10:04:57.870Z,22.20
2017-09-23T10:07:27.756Z,22.20
2017-09-23T10:09:57.319Z,22.10
2017-09-23T10:12:37.916Z,22.10
2017-09-23T10:15:06.681Z,22.10
2017-09-23T10:17:36.305Z,22.50
2017-09-23T10:20:07.403Z,22.80
2017-09-23T10:22:36.827Z,23.70
2017-09-23T10:25:05.567Z,23.70
2017-09-23T10:27:34.562Z,24.20
2017-09-23T10:30:03.127Z,24.80
2017-09-23T10:32:32.289Z,25.20
2017-09-23T10:35:01.615Z,25.10
2017-09-23T10:37:30.392Z,24.80
2017-09-23T10:39:59.097Z,24.70
2017-09-23T10:42:27.664Z,24.80
2017-09-23T10:44:56.401Z,25.20
2017-09-23T10:47:25.570Z,25.60
2017-09-23T10:49:54.814Z,25.80
2017-09-23T10:52:24.363Z,26.10
2017-09-23T10:54:54.473Z,26.10
2017-09-23T10:57:23.098Z,26.10
2017-09-23T10:59:52.061Z,26.10
2017-09-23T11:02:20.946Z,25.90
2017-09-23T11:04:50.181Z,26.00
2017-09-23T11:07:19.911Z,26.10
2017-09-23T11:09:49.391Z,26.00
2017-09-23T11:12:18.674Z,25.60
2017-09-23T11:14:47.591Z,25.60
2017-09-23T11:17:16.321Z,25.70
2017-09-23T11:19:45.087Z,25.50
2017-09-23T11:22:13.837Z,25.40
2017-09-23T11:24:42.456Z,25.30
2017-09-23T11:27:11.151Z,25.30
2017-09-23T11:29:40.439Z,24.30
2017-09-23T11:32:09.817Z,24.30
2017-09-23T11:34:39.500Z,23.40
2017-09-23T11:37:08.593Z,23.40
2017-09-23T11:39:37.414Z,22.90
2017-09-23T11:42:06.315Z,22.70
2017-09-23T11:44:35.585Z,22.60
2017-09-23T11:47:04.626Z,22.90
2017-09-23T11:49:33.410Z,23.20
2017-09-23T11:52:02.560Z,23.50
2017-09-23T11:54:32.196Z,23.90
2017-09-23T11:57:00.665Z,23.90
2017-09-23T11:59:29.577Z,24.10
2017-09-23T12:01:58.659Z,24.00
2017-09-23T12:04:27.386Z,23.90
2017-09-23T12:06:56.077Z,23.60
2017-09-23T12:09:25.363Z,23.40
2017-09-23T12:11:53.921Z,23.10
2017-09-23T12:14:22.629Z,23.00
2017-09-23T12:16:51.010Z,22.80
2017-09-23T12:19:19.617Z,22.60
2017-09-23T12:21:48.816Z,22.50
2017-09-23T12:24:17.642Z,22.70
2017-09-23T12:26:46.789Z,22.60
2017-09-23T12:29:15.237Z,22.70
2017-09-23T12:31:44.209Z,22.30
2017-09-23T12:34:13.062Z,21.90
2017-09-23T12:36:41.837Z,21.90
2017-09-23T12:39:12.321Z,21.10
2017-09-23T12:41:41.192Z,21.20
2017-09-23T12:44:10.094Z,20.40
2017-09-23T12:46:39.460Z,20.00
2017-09-23T12:49:07.942Z,20.10
2017-09-23T12:51:37.256Z,20.00
2017-09-23T12:54:06.955Z,20.20
2017-09-23T12:56:36.869Z,20.20
2017-09-23T12:59:05.924Z,20.30
2017-09-23T13:01:34.910Z,20.20
2017-09-23T13:04:04.412Z,20.20
2017-09-23T13:06:32.956Z,20.20
2017-09-23T13:09:02.367Z,20.10
2017-09-23T13:11:31.892Z,19.90
2017-09-23T13:14:00.901Z,19.80
2017-09-23T13:16:29.424Z,19.60
2017-09-23T13:18:59.243Z,19.60
2017-09-23T13:21:27.805Z,19.70
2017-09-23T13:23:57.015Z,19.80
2017-09-23T13:26:26.585Z,19.90
2017-09-23T13:28:55.368Z,19.90
2017-09-23T13:31:24.249Z,19.90
2017-09-23T13:33:53.678Z,19.90
2017-09-23T13:36:23.630Z,19.80
2017-09-23T13:38:52.724Z,19.80
2017-09-23T13:41:21.944Z,19.90
2017-09-23T13:43:50.748Z,20.00
2017-09-23T13:46:19.565Z,20.00
2017-09-23T13:48:48.901Z,20.00
2017-09-23T13:51:17.705Z,20.10
2017-09-23T13:53:46.840Z,20.10
2017-09-23T13:56:15.890Z,20.10
2017-09-23T13:58:44.934Z,20.10
2017-09-23T14:01:13.785Z,20.00
2017-09-23T14:03:42.391Z,19.90
2017-09-23T14:06:11.360Z,19.80
2017-09-23T14:08:41.075Z,19.80
2017-09-23T14:11:10.179Z,19.80
2017-09-23T14:13:38.737Z,20.00
2017-09-23T14:16:07.871Z,20.00
2017-09-23T14:18:40.223Z,20.00
2017-09-23T14:21:10.492Z,19.90
2017-09-23T14:23:39.248Z,19.80
2017-09-23T14:26:08.155Z,19.60
2017-09-23T14:28:37.151Z,19.50
2017-09-23T14:31:05.875Z,19.50
2017-09-23T14:33:35.297Z,19.30
2017-09-23T14:36:04.788Z,19.30
2017-09-23T14:38:34.067Z,19.30
2017-09-23T14:41:02.953Z,19.40
2017-09-23T14:43:31.718Z,19.40
2017-09-23T14:46:01.607Z,19.40
2017-09-23T14:48:30.444Z,19.40
2017-09-23T14:50:59.170Z,19.20
2017-09-23T14:53:28.199Z,19.10
2017-09-23T14:55:56.987Z,18.90
2017-09-23T14:58:26.172Z,18.90
2017-09-23T15:00:55.098Z,18.80
2017-09-23T15:03:24.108Z,18.90
2017-09-23T15:05:52.973Z,18.90
2017-09-23T15:08:22.033Z,18.90
2017-09-23T15:10:50.985Z,18.80
2017-09-23T15:13:20.674Z,18.70
2017-09-23T15:15:49.847Z,18.60
2017-09-23T15:18:18.754Z,18.50
2017-09-23T15:20:48.910Z,18.40
2017-09-23T15:23:17.578Z,18.40
2017-09-23T15:25:47.186Z,18.40
2017-09-23T15:28:16.194Z,18.40
2017-09-23T15:30:45.102Z,18.50
2017-09-23T15:33:14.441Z,18.50
2017-09-23T15:35:43.402Z,18.60
2017-09-23T15:38:12.540Z,18.60
2017-09-23T15:40:41.442Z,18.50
2017-09-23T15:43:10.516Z,18.50
2017-09-23T15:45:39.154Z,18.50
2017-09-23T15:48:08.004Z,18.40
2017-09-23T15:50:37.323Z,18.30
2017-09-23T15:53:06.424Z,18.30
2017-09-23T15:55:34.995Z,18.30
2017-09-23T15:58:05.682Z,18.10
2017-09-23T16:00:35.642Z,18.10
2017-09-23T16:03:04.724Z,18.10
2017-09-23T16:05:33.434Z,18.00
2017-09-23T16:08:02.307Z,18.00
2017-09-23T16:10:32.425Z,17.90
2017-09-23T16:13:01.450Z,18.00
2017-09-23T16:15:30.363Z,17.90
2017-09-23T16:17:59.735Z,17.90
2017-09-23T16:20:28.391Z,17.80
2017-09-23T16:22:57.320Z,17.70
2017-09-23T16:25:26.283Z,17.70
2017-09-23T16:27:55.387Z,17.50
2017-09-23T16:30:24.395Z,17.40
2017-09-23T16:32:53.244Z,17.40
2017-09-23T16:35:22.170Z,17.20
2017-09-23T16:37:51.490Z,17.10
2017-09-23T16:40:20.590Z,17.10
2017-09-23T16:42:49.938Z,16.90
2017-09-23T16:45:18.744Z,16.90
2017-09-23T16:47:47.312Z,16.90
2017-09-23T16:50:16.170Z,17.00
2017-09-23T16:52:45.626Z,16.90
2017-09-23T16:55:14.839Z,16.90
2017-09-23T16:57:44.286Z,16.90
2017-09-23T17:00:13.373Z,16.90
2017-09-23T17:02:41.893Z,16.90
2017-09-23T17:05:11.155Z,16.70
2017-09-23T17:07:39.785Z,16.70
2017-09-23T17:10:08.924Z,16.50
2017-09-23T17:12:38.430Z,16.50
2017-09-23T17:15:07.267Z,16.50
2017-09-23T17:17:36.696Z,16.50
2017-09-23T17:20:05.635Z,16.50
2017-09-23T17:22:34.452Z,16.50
2017-09-23T17:25:03.202Z,16.60
2017-09-23T17:27:31.736Z,16.50
2017-09-23T17:30:01.047Z,16.50
2017-09-23T17:32:29.825Z,16.40
2017-09-23T17:34:58.621Z,16.50
2017-09-23T17:37:28.441Z,16.60
2017-09-23T17:39:57.683Z,16.50
2017-09-23T17:42:26.806Z,16.60
2017-09-23T17:44:55.977Z,16.60
2017-09-23T17:47:25.371Z,16.60
2017-09-23T17:49:54.622Z,16.60
2017-09-23T17:52:23.792Z,16.60
2017-09-23T17:54:53.900Z,16.50
2017-09-23T17:57:22.890Z,16.50
2017-09-23T17:59:51.758Z,16.60
2017-09-23T18:02:21.016Z,16.60
2017-09-23T18:04:50.146Z,16.50
2017-09-23T18:07:20.025Z,16.50
2017-09-23T18:09:48.787Z,16.60
2017-09-23T18:12:18.154Z,16.50
2017-09-23T18:14:47.133Z,16.50
2017-09-23T18:17:16.043Z,16.50
2017-09-23T18:19:44.777Z,16.50
2017-09-23T18:22:13.625Z,16.40
2017-09-23T18:24:42.463Z,16.40
2017-09-23T18:27:11.956Z,16.40
2017-09-23T18:29:40.717Z,16.40
2017-09-23T18:32:09.915Z,16.30
2017-09-23T18:34:38.938Z,16.30
2017-09-23T18:37:08.658Z,16.30
2017-09-23T18:39:37.876Z,16.30
2017-09-23T18:42:06.714Z,16.30
2017-09-23T18:44:36.341Z,16.30
2017-09-23T18:47:05.118Z,16.20
2017-09-23T18:49:33.808Z,16.10
2017-09-23T18:52:02.783Z,16.10
2017-09-23T18:54:31.833Z,16.10
2017-09-23T18:57:00.883Z,16.20
2017-09-23T18:59:30.484Z,16.20
2017-09-23T19:01:59.485Z,16.20
2017-09-23T19:04:28.517Z,16.10
2017-09-23T19:06:57.260Z,16.10
2017-09-23T19:09:27.069Z,16.10
2017-09-23T19:11:56.100Z,16.20
2017-09-23T19:14:25.049Z,16.30
2017-09-23T19:16:53.929Z,16.40
2017-09-23T19:19:22.523Z,16.40
2017-09-23T19:21:52.198Z,16.50
2017-09-23T19:24:21.205Z,16.50
2017-09-23T19:26:50.622Z,16.50
2017-09-23T19:29:19.342Z,16.60
2017-09-23T19:31:48.286Z,16.60
2017-09-23T19:34:17.921Z,16.60
2017-09-23T19:36:46.510Z,16.70
2017-09-23T19:39:15.365Z,16.50
2017-09-23T19:41:45.221Z,16.60
2017-09-23T19:44:14.440Z,16.60
2017-09-23T19:46:43.141Z,16.70
2017-09-23T19:49:12.893Z,16.60
2017-09-23T19:51:41.866Z,16.30
2017-09-23T19:54:10.985Z,16.40
2017-09-23T19:56:40.049Z,16.30
2017-09-23T19:59:09.163Z,16.30
2017-09-23T20:01:38.533Z,16.40
2017-09-23T20:04:07.907Z,16.50
2017-09-23T20:06:36.909Z,16.50
2017-09-23T20:09:05.476Z,16.50
2017-09-23T20:11:34.627Z,16.40
2017-09-23T20:14:03.539Z,16.50
2017-09-23T20:16:32.884Z,16.50
2017-09-23T20:19:01.940Z,16.50
2017-09-23T20:21:30.874Z,16.30
2017-09-23T20:24:00.377Z,16.20
2017-09-23T20:26:29.050Z,16.20
2017-09-23T20:28:58.516Z,16.30
2017-09-23T20:31:27.616Z,16.30
2017-09-23T20:33:56.518Z,16.30
2017-09-23T20:36:25.575Z,16.20
2017-09-23T20:38:54.375Z,16.20
2017-09-23T20:41:23.549Z,16.10
2017-09-23T20:43:52.619Z,16.10
2017-09-23T20:46:21.481Z,16.10
2017-09-23T20:48:50.431Z,16.10
2017-09-23T20:51:19.081Z,16.10
2017-09-23T20:53:48.245Z,16.20
2017-09-23T20:56:17.347Z,16.20
2017-09-23T20:58:46.425Z,16.30
2017-09-23T21:01:15.460Z,16.30
2017-09-23T21:03:44.657Z,16.20
2017-09-23T21:06:13.814Z,16.30
2017-09-23T21:08:43.085Z,16.20
2017-09-23T21:11:11.812Z,16.20
2017-09-23T21:13:40.854Z,16.20
2017-09-23T21:16:09.271Z,16.20
2017-09-23T21:18:38.129Z,16.20
2017-09-23T21:21:06.921Z,16.20
2017-09-23T21:23:35.936Z,16.20
2017-09-23T21:26:05.162Z,16.20
2017-09-23T21:28:34.517Z,16.20
2017-09-23T21:31:03.492Z,16.20
2017-09-23T21:33:32.501Z,16.30
2017-09-23T21:36:01.852Z,16.20
2017-09-23T21:38:30.413Z,16.30
2017-09-23T21:40:59.306Z,16.30
2017-09-23T21:43:28.749Z,16.30
2017-09-23T21:45:57.744Z,16.20
2017-09-23T21:48:26.807Z,16.20
2017-09-23T21:50:55.904Z,16.30
2017-09-23T21:53:25.104Z,16.30
2017-09-23T21:55:53.810Z,16.30
2017-09-23T21:58:22.924Z,16.30
2017-09-23T22:00:52.389Z,16.20
2017-09-23T22:03:21.737Z,16.20
2017-09-23T22:05:50.578Z,16.20
2017-09-23T22:08:20.474Z,16.20
2017-09-23T22:10:49.600Z,16.30
2017-09-23T22:13:19.232Z,16.40
2017-09-23T22:15:48.505Z,16.40
2017-09-23T22:18:17.570Z,16.40
2017-09-23T22:20:46.600Z,16.50
2017-09-23T22:23:15.845Z,16.50
2017-09-23T22:25:45.024Z,16.50
2017-09-23T22:28:14.782Z,16.50
2017-09-23T22:30:43.624Z,16.60
2017-09-23T22:33:12.669Z,16.60
2017-09-23T22:35:41.761Z,16.60
2017-09-23T22:38:10.514Z,16.50
2017-09-23T22:40:39.804Z,16.50
2017-09-23T22:43:08.647Z,16.50
2017-09-23T22:45:37.737Z,16.40
2017-09-23T22:48:07.079Z,16.20
2017-09-23T22:50:35.927Z,16.20
2017-09-23T22:53:05.015Z,16.20
2017-09-23T22:55:34.075Z,16.20
2017-09-23T22:58:02.999Z,16.20
2017-09-23T23:00:31.525Z,16.20
2017-09-23T23:03:00.622Z,16.30
2017-09-23T23:05:29.633Z,16.30
2017-09-23T23:07:58.201Z,16.30
2017-09-23T23:10:27.267Z,16.30
2017-09-23T23:12:56.670Z,16.30
2017-09-23T23:15:25.764Z,16.30
2017-09-23T23:17:54.985Z,16.20
2017-09-23T23:20:24.553Z,16.10
2017-09-23T23:22:53.360Z,16.10
2017-09-23T23:25:22.551Z,16.10
2017-09-23T23:27:51.756Z,16.00
2017-09-23T23:30:20.321Z,16.00
2017-09-23T23:32:49.105Z,16.10
2017-09-23T23:35:18.323Z,16.20
2017-09-23T23:37:47.101Z,16.20
2017-09-23T23:40:16.626Z,16.10
2017-09-23T23:42:45.826Z,16.10
2017-09-23T23:45:14.816Z,16.10
2017-09-23T23:47:45.531Z,16.00
2017-09-23T23:50:14.483Z,16.00
2017-09-23T23:52:43.642Z,16.00
2017-09-23T23:55:12.946Z,16.00
2017-09-23T23:57:41.624Z,16.00
